SiktMolnbas
>≥ 10km≥ 10km ≥ 2000ft≥ 2000ft
< 10km< 10km < 2000ft< 2000ft
< 8km< 8km < 1500ft< 1500ft
< 5km< 5km < 1000ft< 1000ft
< 3km< 3km < 500ft< 500ft

Nytt 18 jan 2017:

Nytt 17 jan 2017:

ESNQ (04:20 UTC)

Kiruna flygplats

METAR

ESNQ 270420Z AUTO 20012KT 9999 OVC012/// M02/M04 Q1020=

TAF

Ingen TAF hittades.

ESNG (04:20 UTC)

Gällivare (Kavaheden), Lapland Airport

METAR

ESNG 270420Z AUTO 18005KT 9999 SG BKN011/// OVC018/// M02/// Q1023 REFZUP=

TAF

Ingen TAF hittades.

ESPA (04:20 UTC)

Luleå Airport (Kallax)

METAR

SHSN

ESPA 270420Z AUTO 19006KT 9999 -SHSN FEW010/// SCT013/// BKN021/// OVC027/// 01/00 Q1028=

TAF

Ingen TAF hittades.

ESNL (04:20 UTC)

Lycksele flygplats

METAR

ESNL 270420Z AUTO 16005KT 130V190 9999 OVC010/// 01/M01 Q1026=

TAF

Ingen TAF hittades.

ESNU (04:20 UTC)

Umeå City Airport

METAR

ESNU 270420Z 16008KT 9999 FEW010 OVC014 02/M00 Q1029=

TAF

ESNU 270230Z 2703/2712 15008KT 9999 BKN008 TEMPO 2703/2712 SCT007 OVC015=

ESNO (04:20 UTC)

Örnsköldsvik flygplats

METAR

ESNO 270420Z AUTO 15006KT 9999 OVC010/// 01/01 Q1027=

TAF

Ingen TAF hittades.

ESNK (04:20 UTC)

Kramfors-Sollefteå flygplats

METAR

ESNK 270420Z AUTO 16004KT 3800 OVC020/// M01/M01 Q1028=

TAF

Ingen TAF hittades.

ESNN (04:20 UTC)

Sundsvall-Härnösands flygplats (Midlanda)

METAR

FG

ESNN 270420Z AUTO VRB01KT 0150 R16/0700N R34/0650N FZFG VV001 M02/M02 Q1028=

TAF

Ingen TAF hittades.

ESNZ (04:20 UTC)

Åre Östersund Airport (Frösön)

METAR

ESNZ 270420Z AUTO 16012KT 9999 BKN013/// 01/00 Q1022=

TAF

Ingen TAF hittades.

ESNS (04:20 UTC)

Skellefteå flygplats

METAR

ESNS 270420Z AUTO VRB03KT 9999 FEW008/// OVC018/// 00/00 Q1028=

TAF

Ingen TAF hittades.

ESGT (04:20 UTC)

Trollhättan-Vänersborgs flygplats (Malöga flygplats)

METAR

ESGT 270420Z AUTO 14006KT 9999 R15///// R33///// OVC004/// 05/04 Q1026=

TAF

Ingen TAF hittades.

ESGP (04:20 UTC)

Göteborg City Airport (Säve)

METAR

ESGP 270420Z AUTO 14004KT 7000 OVC004/// 06/05 Q1025=

TAF

BR

ESGP 270330Z 2704/2712 15007KT 6000 OVC003 TEMPO 2704/2712 2500 BR BKN006=

ESGG (04:20 UTC)

Göteborg-Landvetter flygplats

METAR

FG

ESGG 270420Z 15006KT 0650 R03/1900N R21/P2000N FG OVC001 05/04 Q1025=

TAF

Ingen TAF hittades.

ESMT (04:20 UTC)

Halmstads flygplats

METAR

BR

ESMT 270420Z AUTO 16004KT 130V190 4300 BR SCT002/// BKN008/// OVC009/// 06/06 Q1026=

TAF

Ingen TAF hittades.

ESTA (04:20 UTC)

Ängelholm-Helsingborg flygplats

METAR

BR

ESTA 270420Z AUTO 16005KT 4700 BR OVC004/// 06/06 Q1026=

TAF

Ingen TAF hittades.

ESTL (04:20 UTC)

Ljungbyheds flygplats

METAR

BR

ESTL 270420Z AUTO 11003KT 7000 BR FEW008/// OVC010/// 06/06 Q1027=

TAF

Ingen TAF hittades.

ESMS (04:20 UTC)

Malmö Airport

METAR

FG

ESMS 270420Z 19003KT 0500 R17/1800U R35/1600N FG OVC007 05/05 Q1026=

TAF

ESMS AMD 270328Z 2703/2803 15005KT 5000 BKN010 TEMPO 2703/2716 0200 BCFG BKN004=

ESMK (04:20 UTC)

Kristianstad Airport

METAR

BR

ESMK 270420Z AUTO 19001KT 3200 BR SCT009/// OVC017/// 05/05 Q1027=

TAF

Ingen TAF hittades.

ESDF (04:20 UTC)

Ronneby flygplats

METAR

ESDF 270420Z AUTO 06003KT 7000 BKN010/// M01/M01 Q1028=

TAF

Ingen TAF hittades.

ESMQ (04:20 UTC)

Kalmar Airport

METAR

FG

ESMQ 270420Z AUTO VRB01KT 0450 R16/P1500N R34/P1500N FG VV001 01/01 Q1028=

TAF

Ingen TAF hittades.

ESMX (03:50 UTC)

Växjö, Smaland Airport

METAR

ESMX 270350Z AUTO VRB03KT 9999 R01///// R19/P2000N FEW002/// OVC008/// 02/02 Q1027=

TAF

Ingen TAF hittades.

ESGJ (04:20 UTC)

Jönköping Airport

METAR

FG

ESGJ 270420Z AUTO 12003KT 0250 R01/0800N R19/0800N FG OVC001/// 03/03 Q1026=

TAF

Ingen TAF hittades.

ESSA (04:20 UTC)

Stockholm-Arlanda flygplats

METAR

ESSA 270420Z 32003KT 9999 BKN013 OVC022 00/M00 Q1028 TEMPO BKN012=

TAF

DZBR

ESSA 270230Z 2703/2803 36005KT 9999 FEW008 BKN016 PROB40 2703/2707 1400 BR BKN004 PROB40 2715/2724 2500 DZ BR BKN004=

ESSB (04:20 UTC)

Stockholm-Bromma flygplats

METAR

ESSB 270420Z AUTO 33003KT 9999 OVC019/// 01/00 Q1028=

TAF

Ingen TAF hittades.

ESKN (04:20 UTC)

Stockholm-Skavsta flygplats

METAR

ESKN 270420Z 35003KT 320V040 9999 OVC010 01/00 Q1028=

TAF

DZBR

ESKN 270230Z 2703/2803 33004KT 6000 BKN002 PROB40 2703/2716 2000 BR SCT003 BKN015 BECMG 2716/2718 SCT008 BKN015 TEMPO 2718/2803 2500 DZ BR BKN006=

ESSL (04:20 UTC)

Linköping - SAAB Flygplats

METAR

ESSL 270420Z AUTO 10003KT 0250 R11/0900N R29/1000U VV003 00/M00 Q1028=

TAF

FG

ESSL 270330Z 2704/2706 VRB03KT 0300 FG OVC002 PROB40 2704/2706 5000 NSW OVC005=

ESSV (04:20 UTC)

Visby flygplats

METAR

ESSV 270420Z AUTO 34007KT 9999 UP OVC021/// 04/03 Q1027 RERA=

TAF

Ingen TAF hittades.

ESOW (04:20 UTC)

Stockholm-Västerås flygplats

METAR

ESOW 270420Z AUTO 03003KT 9000 OVC015/// 01/M00 Q1029=

TAF

Ingen TAF hittades.

ESOE (04:20 UTC)

Örebro flygplats

METAR

BR

ESOE 270420Z AUTO VRB03KT 3200 BR VV003 01/00 Q1028=

TAF

Ingen TAF hittades.

ESOK (04:20 UTC)

Karlstad Airport

METAR

FG

ESOK 270420Z 09006KT 0400 R03/0800N R21/0750N FG VV002 00/00 Q1026=

TAF

Ingen TAF hittades.

ESSD (04:20 UTC)

Borlänge, Dala Airport

METAR

BR

ESSD 270420Z AUTO 14004KT 4700 BR OVC002/// M01/M01 Q1028=

TAF

Ingen TAF hittades.

ESIB (04:20 UTC)

Såtenäs

METAR

ESIB 270420Z AUTO 13006KT 9999 OVC006/// 05/05 Q1025=

TAF

Ingen TAF hittades.

ESNV (04:20 UTC)

Vilhelmina flygplats

METAR

SN

ESNV 270420Z AUTO 16005KT 120V200 3700 -SN FEW008/// BKN012/// OVC015/// M01/M03 Q1024=

TAF

Ingen TAF hittades.

ESST (04:20 UTC)

Torsby flygplats (Fryklanda)

METAR

ESST 270420Z AUTO 12005KT 080V160 6000 OVC003/// 01/01 Q1026 REDZ=

TAF

Ingen TAF hittades.

ESUT (04:20 UTC)

Hemavans flygplats

METAR

ESUT 270420Z AUTO 13012KT 9999 OVC012/// M02/M04 Q1021=

TAF

Ingen TAF hittades.

ESNX (04:20 UTC)

Arvidsjaur flygplats

METAR

SN

ESNX 270420Z AUTO 13004KT 4900 -SN BKN007/// OVC010/// ///// Q1024 RESG=

TAF

Ingen TAF hittades.

ESIA (04:20 UTC)

Karlsborg

METAR

ESIA 270420Z AUTO 10007KT 9999 OVC005/// 02/02 Q1027=

TAF

Ingen TAF hittades.

ESUP (04:20 UTC)

Pajala

METAR

ESUP 270420Z AUTO 18012KT //// SCT009/// OVC018/// M02/M02 Q1026 RESN=

TAF

Ingen TAF hittades.

ESPE (04:20 UTC)

Vidsel

METAR

SN

ESPE 270420Z AUTO 13003KT 090V170 9999 -SN OVC018/// M02/M02 Q1026=

TAF

Ingen TAF hittades.

ESCM (04:20 UTC)

Uppsala

METAR

ESCM 270420Z AUTO 30004KT 9999 OVC024/// 00/M00 Q1028=

TAF

Ingen TAF hittades.

ESKM (04:20 UTC)

Mora/Siljan

METAR

ESKM 270420Z AUTO 12004KT 9999 OVC013/// 00/00 Q1026=

TAF

Ingen TAF hittades.

EKRN (03:50 UTC)

Bornholm Airport

METAR

EKRN 270350Z AUTO 07002KT 7000 BKN015/// 06/05 Q1027=

TAF

RABR

EKRN 270204Z 2703/2712 VRB04KT 9000 BKN040 TEMPO 2703/2708 3000 -RA BR BKN008 BECMG 2708/2711 16012KT=

EFIV (04:20 UTC)

Ivalo Airport

METAR

EFIV 270420Z AUTO 21012KT 9999 OVC009 M04/M06 Q1026=

TAF

Ingen TAF hittades.

EFKT (04:20 UTC)

Kittilä Airport

METAR

EFKT 270420Z AUTO 17012KT 9999 OVC005 M05/M05 Q1025=

TAF

Ingen TAF hittades.

EFRO (04:20 UTC)

Rovaniemi Airport

METAR

SN

EFRO 270420Z AUTO 16007KT 070V220 2300 -SN OVC003 M05/M06 Q1028=

TAF

FZDZ

EFRO 270229Z 2703/2803 17008KT 9000 -SN OVC003 TEMPO 2703/2712 2000 -FZDZ BKN001 PROB40 2703/2706 0700 FZFG TEMPO 2712/2803 3000 -FZDZSN OVC001=

EFKE (04:20 UTC)

Kemi-Tornio Airport

METAR

EFKE 270420Z AUTO 17008KT 130V200 9999 OVC005 M01/M02 Q1030=

TAF

Ingen TAF hittades.

EFKS (04:20 UTC)

Kuusamo Airport

METAR

EFKS 270420Z AUTO 16006KT 9999 OVC006 M06/M07 Q1030=

TAF

Ingen TAF hittades.

EFOU (04:20 UTC)

Oulu Airport

METAR

EFOU 270420Z AUTO 15006KT 9999 OVC005 M02/M03 Q1031=

TAF

SN

EFOU 270229Z 2703/2803 15009KT 9999 OVC005 TEMPO 2703/2706 6000 -SN PROB40 2703/2706 BKN004 TEMPO 2706/2712 6000 -SN SCT005 OVC010 TEMPO 2712/2803 SCT005 OVC012 PROB30 2712/2724 SCT008 BKN030=

EFKI (04:20 UTC)

Kajaani Airport

METAR

EFKI 270420Z AUTO 16008KT 9999 BKN008 M06/M07 Q1032=

TAF

Ingen TAF hittades.

EFKK (04:20 UTC)

Kokkola-Pietarsaari/Kruunupyy Airport

METAR

EFKK 270420Z AUTO 14005KT 9999 OVC022 M02/M03 Q1030=

TAF

Ingen TAF hittades.

EFVA (04:20 UTC)

Vaasa Airport

METAR

EFVA 270420Z AUTO 13005KT 9999 OVC025 M02/M03 Q1030=

TAF

SN

EFVA 270229Z 2703/2803 14005KT 9999 FEW008 BKN030 PROB40 2703/2710 6000 -SN BKN008 TEMPO 2710/2724 BKN012=

EFKU (04:20 UTC)

Kuopio Airport

METAR

EFKU 270420Z AUTO 13009KT 9999 OVC003 M05/M05 Q1033=

TAF

SN

EFKU 270226Z 2703/2803 12007KT 9999 OVC004 BECMG 2703/2706 OVC006 TEMPO 2706/2712 OVC010 TEMPO 2712/2803 BKN004 PROB40 2712/2803 4000 -SN=

EFJY (04:20 UTC)

Jyväskylä Airport

METAR

EFJY 270420Z AUTO 12006KT 9999 OVC009 M02/M04 Q1031=

TAF

SN

EFJY 270237Z 2703/2803 13006KT 9999 OVC008 TEMPO 2703/2706 3000 -SN BKN010 TEMPO 2710/2715 BKN012=

EFTP (04:20 UTC)

Tampere-Pirkkala Airport

METAR

SN

EFTP 270420Z AUTO 11007KT 9000 -SN FEW007 BKN048 M04/M05 Q1030=

TAF

SN

EFTP 270237Z 2703/2803 13006KT 8000 -SN OVC005 TEMPO 2703/2709 3000 SCT007 BKN015 BECMG 2709/2711 SCT012 BKN015 BECMG 2714/2716 BKN012=

EFPO (04:20 UTC)

Pori Airport

METAR

SN

EFPO 270420Z AUTO 10004KT 5000 -SN FEW006 SCT021 OVC029 M02/M03 Q1030=

TAF

Ingen TAF hittades.

EFTU (04:20 UTC)

Turku Airport

METAR

SN

EFTU 270420Z AUTO 09006KT 9999 -SN BKN006 BKN041 M03/M04 Q1029=

TAF

SN

EFTU AMD 270421Z 2704/2803 08006KT 8000 -SN SCT005 OVC020 TEMPO 2704/2706 2000 OVC005 BECMG 2708/2710 OVC010 TEMPO 2710/2803 SCT012 BKN020=

EFHK (04:20 UTC)

Helsinki-Vantaa Airport

METAR

SN

EFHK 270420Z 05009KT 4000 -SN BKN008 M04/M05 Q1030 TEMPO 5000=

TAF

Ingen TAF hittades.

EFMA (04:20 UTC)

Mariehamn Airport

METAR

SHRA

EFMA 270420Z AUTO 04004KT 9999 -SHRA OVC010 01/00 Q1028=

TAF

RA

EFMA 270237Z 2703/2712 05005KT 9999 -RA SCT007 OVC015 TEMPO 2703/2709 BKN007=

EKSB (03:50 UTC)

Sønderborg Airport

METAR

BR

EKSB 270350Z AUTO 17006KT 140V200 3300 BR OVC004/// 08/07 Q1024=

TAF

Ingen TAF hittades.

EKSP (04:20 UTC)

Vojens Airport

METAR

BR

EKSP 270420Z 18010KT 1800 BR SCT001 BKN002 07/06 Q1024=

TAF

RAFG

EKSP 270212Z 2703/2803 18008KT 0400 FG BKN002 TEMPO 2703/2705 3000 BR MIFG SCT003 BECMG 2705/2707 8000 NSW SCT015 BKN030 TEMPO 2707/2710 BKN008 BECMG 2716/2718 7000 -RA TEMPO 2718/2803 4000 RA BKN012=

EKEB (03:50 UTC)

Esbjerg Airport

METAR

BR

EKEB 270350Z AUTO 15011KT 1200 R08/P1500D R26/P1500N BR OVC002/// 07/06 Q1023=

TAF

Ingen TAF hittades.

EKYT (03:50 UTC)

Aalborg Airport

METAR

EKYT 270350Z AUTO 15007KT 5000 OVC004/// 07/07 Q1023=

TAF

RABR

EKYT 270212Z 2703/2803 16005KT 8000 BKN008 TEMPO 2703/2706 2000 BR BKN003 BECMG 2706/2708 16013KT SCT015 BKN030 TEMPO 2708/2712 BKN008 BECMG 2721/2724 7000 -RA TEMPO 2800/2803 4000 RA BKN012=

EKKA (04:20 UTC)

Karup Airport

METAR

EKKA 270420Z AUTO 15010KT 8000 OVC003/// 07/06 Q1022=

TAF

RABR

EKKA 270212Z 2703/2803 17008KT 8000 BKN008 TEMPO 2703/2705 2000 BR BKN003 BECMG 2705/2707 SCT015 BKN030 TEMPO 2707/2710 BKN008 BECMG 2716/2718 7000 -RA TEMPO 2718/2803 4000 RA BKN012=

EKBI (03:50 UTC)

Billund Airport

METAR

BR

EKBI 270350Z AUTO 14008KT 100V170 3600 BR OVC002/// 07/07 Q1023=

TAF

BR

EKBI 262310Z 2700/2724 16008KT 3500 BR BKN002 TEMPO 2700/2707 1000 BR BKN005 BECMG 2707/2709 9999 NSW SCT008=

EKVD (03:50 UTC)

Kolding Airport

METAR

EKVD 270350Z AUTO 14008KT //// ///////// 07/07 Q1024=

TAF

Ingen TAF hittades.

EKCH (03:50 UTC)

Copenhagen Airport, Kastrup

METAR

EKCH 270350Z 18005KT 9999 OVC007 07/06 Q1027 TEMPO BKN004=

TAF

BR

EKCH 262310Z 2700/2724 20005KT 8000 BKN008 TEMPO 2700/2713 4000 BR BKN004 BECMG 2713/2715 14015KT SCT020=

EKRK (03:50 UTC)

Copenhagen Airport, Roskilde

METAR

EKRK 270350Z AUTO 19007KT 6000 OVC003/// 06/06 Q1026=

TAF

BR

EKRK 270212Z 2703/2712 16006KT 5000 BKN003 TEMPO 2703/2710 4000 BR BKN005 BECMG 2710/2712 BKN008=

ENRY (04:20 UTC)

Moss flygplats, Rygge

METAR

BR

ENRY 270420Z AUTO 12009KT 4400NDV BR OVC002/// 06/06 Q1024=

TAF

RABR

ENRY 262300Z 2700/2724 15012KT 8000 -RADZ SCT001 OVC005 TEMPO 2700/2724 1400 RADZ BR OVC001=

ENGM (04:20 UTC)

Oslo flygplats, Gardermoen

METAR

RABR

ENGM 270420Z 07003KT 020V100 5000 -RADZ BR OVC002 01/01 Q1023=

TAF

RAFG

ENGM 262300Z 2700/2724 04005KT 0800 FG DZ VV001 TEMPO 2700/2724 8000 -RADZ BR SCT001 OVC005 BECMG 2706/2709 15010KT=

ENTO (04:20 UTC)

Sandefjord flygplats, Torp

METAR

DZ

ENTO 270420Z AUTO 18009KT 8000 -DZ BKN002/// OVC004/// 07/07 Q1023 RERA=

TAF

RABR

ENTO 262300Z 2700/2724 VRB05KT 8000 -RA SCT001 OVC005 TEMPO 2700/2724 1400 RADZ BR OVC001 BECMG 2702/2705 15012KT TEMPO 2708/2720 15015G25KT=

ENCN (04:20 UTC)

Kristiansand flygplats, Kjevik

METAR

ENCN 270420Z AUTO 14009KT 090V160 8000 BKN005/// OVC006/// 09/08 Q1020=

TAF

RABR

ENCN 270200Z 2703/2712 16012KT 8000 -RA SCT003 OVC010 TEMPO 2703/2712 2500 -RADZ BR OVC003=

ENZV (04:20 UTC)

Stavanger-Sola flygplats

METAR

ENZV 270420Z AUTO 14020KT 9999 R18/P2000N R36/P2000N R10///// SCT028/// BKN039/// OVC057/// 11/06 Q1014=

TAF

RA

ENZV 262300Z 2700/2724 14015KT 9999 FEW020 BKN040 TEMPO 2700/2703 14015G25KT BECMG 2703/2706 15020G35KT RA TEMPO 2706/2724 BKN014 BECMG 2715/2718 14015KT TEMPO 2715/2724 14015G30KT BECMG 2718/2721 NSW=

ENHD (04:20 UTC)

Haugesund flygplats, Karmøy

METAR

ENHD 270420Z AUTO 14022G34KT 9999 FEW035/// 11/05 Q1013=

TAF

Ingen TAF hittades.

ENBR (04:20 UTC)

Bergen flygplats, Flesland

METAR

ENBR 270420Z 16020KT 9999 BKN046 11/02 Q1012 RMK WIND 1200FT 14039G50KT=

TAF

RA

ENBR 262300Z 2700/2724 15015KT 9999 BKN035 TEMPO 2700/2716 16022G35KT TEMPO 2706/2718 RA=

ENOV (03:50 UTC)

Ørsta-Volda flygplats, Hovden

METAR

ENOV 270350Z AUTO 05006KT 330V130 9999 BKN120/// 12/M02 Q1011 RMK WIND RWY24 05010G24KT WIND 2090FT 14025KT=

TAF

Ingen TAF hittades.

ENML (03:50 UTC)

Molde flygplats, Årø

METAR

ENML 270350Z AUTO 07012KT 9999NDV FEW150/// 08/01 Q1012=

TAF

Ingen TAF hittades.

ENKB (03:50 UTC)

Kristiansund flygplats, Kvernberget

METAR

ENKB 270350Z AUTO 10008KT 070V170 9999 BKN190/// BKN230/// 08/M01 Q1013 RMK WIND 745FT 13019KT=

TAF

Ingen TAF hittades.

ENRO (04:20 UTC)

Røros flygplats

METAR

ENRO 270420Z AUTO VRB02KT 9999 SCT030 M07/M08 Q1019=

TAF

Ingen TAF hittades.

ENVA (04:20 UTC)

Trondheim flygplats, Værnes

METAR

ENVA 270420Z AUTO VRB06KT 9999 SCT200/// 06/M01 Q1017 RMK WIND 670FT 17024KT=

TAF

ENVA 262300Z 2700/2724 10008KT CAVOK TEMPO 2700/2709 15015G25KT BECMG 2708/2710 16015KT TEMPO 2710/2718 17022G35KT TEMPO 2718/2724 17015G30KT=

ENOL (03:50 UTC)

Ørland flygplats

METAR

ENOL 270350Z 12016KT CAVOK 06/M01 Q1015=

TAF

RA

ENOL 262300Z 2700/2724 13018KT CAVOK TEMPO 2700/2724 14020G30KT PROB40 TEMPO 2719/2723 RA=

ENRM (03:50 UTC)

Rørvik flygplats, Ryum

METAR

ENRM 270350Z AUTO 10008KT 060V130 9999 FEW127 SCT157 04/M02 Q1017=

TAF

Ingen TAF hittades.

ENBN (03:50 UTC)

Brønnøysund flygplats, Brønnøy

METAR

ENBN 270350Z AUTO 14011G21KT 090V170 9999NDV BKN110/// OVC170/// 06/M01 Q1018=

TAF

ENBN 270200Z 2703/2712 09015KT CAVOK TEMPO 2703/2712 14018G28KT=

ENRA (03:50 UTC)

Mo i Rana flygplats, Røssvoll

METAR

ENRA 270350Z AUTO 10006KT 070V130 9999 FEW130/// 02/M04 Q1021=

TAF

Ingen TAF hittades.

ENBO (04:20 UTC)

Bodö flygplats

METAR

ENBO 270420Z AUTO 09021KT 9999 BKN053/// OVC066/// 04/M02 Q1018=

TAF

ENBO 262300Z 2700/2724 10020KT CAVOK=

ENAN (04:20 UTC)

Andøya flygplats

METAR

ENAN 270420Z AUTO 18010KT 9999 OVC032/// 03/M02 Q1018=

TAF

Ingen TAF hittades.

ENEV (03:50 UTC)

Harstad-Narvik flygplats

METAR

ENEV 270350Z 16007KT 100V210 9999 BKN037 02/M04 Q1019 RMK WIND 1400FT 15013KT=

TAF

FZRA

ENEV 262300Z 2700/2724 17007KT 9999 SCT040 PROB30 TEMPO 2703/2706 -FZRA=

ENDU (04:20 UTC)

Bardufoss flygplats

METAR

ENDU 270420Z 00000KT 9999 FEW050 SCT070 M08/M09 Q1019 RMK WIND 1100FT 14008KT WIND 2200FT 17014KT=

TAF

ENDU 262300Z 2700/2724 VRB02KT CAVOK=

ENTC (04:20 UTC)

Tromsø flygplats

METAR

ENTC 270420Z 25005KT 220V280 9999 FEW026 BKN050 03/M02 Q1019 RMK WIND 2600FT 19017KT=

TAF

ENTC 262300Z 2700/2724 23012KT CAVOK=

ENAT (03:50 UTC)

Alta flygplats

METAR

ENAT 270350Z AUTO 17005KT 150V210 9999 NCD 01/M04 Q1020 RMK WIND 700FT 19015KT=

TAF

Ingen TAF hittades.

ENNA (03:50 UTC)

Lakselv flygplats

METAR

ENNA 270350Z AUTO 17018KT 9999 SCT024/// BKN030/// 01/M03 Q1020 RMK WIND 1800FT 23028KT=

TAF

ENNA 262300Z 2700/2724 18015KT 9999 FEW020 SCT035=

ENHF (03:50 UTC)

Hammerfest flygplats

METAR

ENHF 270350Z AUTO 24004KT 9999 OVC039/// 01/M03 Q1018 RMK WIND 1254FT 21010KT=

TAF

Ingen TAF hittades.

ENKR (03:50 UTC)

Kirkenes Airport, Høybuktmoen

METAR

ENKR 270350Z AUTO 18016KT 9999 FEW010/// OVC021/// M03/M05 Q1024 RMK WIND 731FT 20025KT=

TAF

ENKR 270200Z 2703/2712 19015KT 9999 BKN020=

ENSK (03:50 UTC)

Stokmarknes Airport, Skagen

METAR

RA

ENSK 270350Z AUTO 14017KT 9999 -RA FEW010/// SCT029/// OVC036/// 04/01 Q1018=

TAF

Ingen TAF hittades.

ENSR (03:50 UTC)

Sørkjosen Airport

METAR

ENSR 270350Z AUTO VRB03KT 9999 NCD M01/M07 Q1020 RMK WIND RWY32 00000KT WIND 1118FT 14007KT=

TAF

Ingen TAF hittades.

ENNM (03:50 UTC)

Namsos Airport, Høknesøra

METAR

ENNM 270350Z AUTO 10012KT 9999 NCD 02/M02 Q1019 REFZRA=

TAF

Ingen TAF hittades.